createdAt,value
2018-12-21T00:01:46.080Z,5.30
2018-12-21T00:04:14.961Z,6.03
2018-12-21T00:06:43.841Z,5.03
2018-12-21T00:09:12.733Z,5.80
2018-12-21T00:11:41.652Z,6.20
2018-12-21T00:14:10.612Z,5.67
2018-12-21T00:16:39.512Z,5.10
2018-12-21T00:19:08.406Z,8.03
2018-12-21T00:21:37.384Z,4.17
2018-12-21T00:24:06.282Z,5.80
2018-12-21T00:26:35.169Z,6.27
2018-12-21T00:29:04.052Z,5.83
2018-12-21T00:31:38.288Z,7.53
2018-12-21T00:34:12.741Z,5.00
2018-12-21T00:36:46.972Z,3.13
2018-12-21T00:39:21.156Z,6.53
2018-12-21T00:41:49.456Z,3.63
2018-12-21T00:44:28.531Z,4.77
2018-12-21T00:47:01.528Z,3.77
2018-12-21T00:49:30.422Z,4.83
2018-12-21T00:51:59.304Z,2.63
2018-12-21T00:54:28.211Z,5.37
2018-12-21T00:56:57.078Z,3.83
2018-12-21T00:59:25.976Z,2.23
2018-12-21T01:01:54.976Z,3.70
2018-12-21T01:04:23.861Z,5.80
2018-12-21T01:06:52.760Z,3.10
2018-12-21T01:09:21.741Z,4.27
2018-12-21T01:11:50.609Z,2.63
2018-12-21T01:14:19.623Z,3.60
2018-12-21T01:16:48.531Z,6.23
2018-12-21T01:19:17.379Z,5.93
2018-12-21T01:21:47.018Z,6.27
2018-12-21T01:24:15.892Z,6.20
2018-12-21T01:26:44.997Z,6.33
2018-12-21T01:29:13.876Z,5.80
2018-12-21T01:31:42.712Z,2.93
2018-12-21T01:34:11.661Z,3.43
2018-12-21T01:36:40.488Z,5.33
2018-12-21T01:39:09.411Z,6.17
2018-12-21T01:41:38.232Z,2.33
2018-12-21T01:44:07.141Z,5.20
2018-12-21T01:46:36.033Z,5.10
2018-12-21T01:49:04.925Z,5.37
2018-12-21T01:51:33.810Z,5.30
2018-12-21T01:54:02.677Z,4.93
2018-12-21T01:56:31.498Z,4.80
2018-12-21T01:59:00.487Z,4.60
2018-12-21T02:01:29.309Z,7.43
2018-12-21T02:03:58.165Z,4.80
2018-12-21T02:06:27.041Z,4.73
2018-12-21T02:08:55.941Z,9.13
2018-12-21T02:11:24.837Z,3.70
2018-12-21T02:13:53.815Z,5.10
2018-12-21T02:16:22.692Z,4.43
2018-12-21T02:18:51.587Z,6.63
2018-12-21T02:21:20.400Z,4.87
2018-12-21T02:23:49.252Z,5.40
2018-12-21T02:26:18.185Z,6.10
2018-12-21T02:28:47.076Z,6.33
2018-12-21T02:31:15.992Z,4.40
2018-12-21T02:33:44.932Z,4.23
2018-12-21T02:36:13.996Z,3.27
2018-12-21T02:38:43.082Z,6.73
2018-12-21T02:41:12.013Z,6.53
2018-12-21T02:43:40.830Z,4.10
2018-12-21T02:46:09.645Z,8.53
2018-12-21T02:48:38.492Z,2.90
2018-12-21T02:51:08.391Z,8.50
2018-12-21T02:53:37.192Z,5.30
2018-12-21T02:56:06.181Z,7.03
2018-12-21T02:58:35.096Z,4.07
2018-12-21T03:01:03.906Z,6.97
2018-12-21T03:03:32.844Z,4.83
2018-12-21T03:06:01.748Z,3.67
2018-12-21T03:08:30.634Z,4.57
2018-12-21T03:10:59.504Z,3.93
2018-12-21T03:13:28.412Z,5.70
2018-12-21T03:15:57.291Z,2.73
2018-12-21T03:18:26.608Z,4.03
2018-12-21T03:20:55.492Z,3.13
2018-12-21T03:23:24.396Z,5.37
2018-12-21T03:25:53.264Z,4.23
2018-12-21T03:28:25.185Z,4.20
2018-12-21T03:30:54.018Z,5.20
2018-12-21T03:33:23.022Z,5.90
2018-12-21T03:35:51.833Z,9.80
2018-12-21T03:38:21.058Z,5.63
2018-12-21T03:40:50.509Z,2.13
2018-12-21T03:43:19.417Z,6.10
2018-12-21T03:45:48.230Z,4.97
2018-12-21T03:48:17.141Z,2.83
2018-12-21T03:50:45.956Z,6.97
2018-12-21T03:53:14.833Z,8.63
2018-12-21T03:55:43.737Z,4.80
2018-12-21T03:58:12.642Z,3.57
2018-12-21T04:00:41.520Z,5.43
2018-12-21T04:03:10.400Z,5.80
2018-12-21T04:05:40.221Z,4.57
2018-12-21T04:08:09.081Z,4.00
2018-12-21T04:10:38.012Z,4.37
2018-12-21T04:13:06.892Z,6.07
2018-12-21T04:15:35.901Z,3.43
2018-12-21T04:18:04.774Z,4.33
2018-12-21T04:20:33.669Z,4.00
2018-12-21T04:23:02.557Z,2.77
2018-12-21T04:25:31.486Z,3.10
2018-12-21T04:28:00.433Z,2.60
2018-12-21T04:30:29.337Z,4.83
2018-12-21T04:32:58.160Z,3.30
2018-12-21T04:35:27.125Z,5.00
2018-12-21T04:37:55.969Z,4.87
2018-12-21T04:40:24.892Z,3.07
2018-12-21T04:42:53.697Z,2.07
2018-12-21T04:45:22.678Z,4.33
2018-12-21T04:47:51.559Z,4.10
2018-12-21T04:50:20.453Z,3.07
2018-12-21T04:52:49.294Z,4.10
2018-12-21T04:55:18.237Z,3.67
2018-12-21T04:57:47.176Z,2.90
2018-12-21T05:00:16.121Z,4.23
2018-12-21T05:02:45.250Z,2.47
2018-12-21T05:05:14.333Z,3.37
2018-12-21T05:07:43.201Z,5.47
2018-12-21T05:10:12.092Z,2.50
2018-12-21T05:12:41.110Z,2.73
2018-12-21T05:15:10.200Z,3.07
2018-12-21T05:17:40.216Z,4.10
2018-12-21T05:20:09.282Z,2.90
2018-12-21T05:22:38.225Z,5.57
2018-12-21T05:25:07.332Z,3.40
2018-12-21T05:27:36.156Z,1.60
2018-12-21T05:30:05.786Z,2.60
2018-12-21T05:32:35.269Z,2.20
2018-12-21T05:35:04.446Z,2.97
2018-12-21T05:37:34.377Z,3.07
2018-12-21T05:40:03.392Z,5.70
2018-12-21T05:42:32.244Z,2.93
2018-12-21T05:45:01.284Z,3.67
2018-12-21T05:47:31.308Z,4.47
2018-12-21T05:50:00.555Z,5.97
2018-12-21T05:52:29.512Z,7.17
2018-12-21T05:54:58.361Z,6.67
2018-12-21T05:57:27.208Z,4.30
2018-12-21T05:59:56.881Z,10.50
2018-12-21T06:02:25.777Z,3.03
2018-12-21T06:04:54.632Z,6.57
2018-12-21T06:07:24.813Z,8.07
2018-12-21T06:09:53.824Z,5.50
2018-12-21T06:12:22.644Z,2.23
2018-12-21T06:14:51.505Z,2.37
2018-12-21T06:17:20.332Z,2.93
2018-12-21T06:19:49.237Z,3.90
2018-12-21T06:22:18.137Z,2.70
2018-12-21T06:24:46.974Z,2.60
2018-12-21T06:27:16.790Z,3.57
2018-12-21T06:29:45.608Z,2.23
2018-12-21T06:32:14.550Z,4.73
2018-12-21T06:34:43.438Z,2.60
2018-12-21T06:37:13.317Z,1.77
2018-12-21T06:39:42.176Z,2.57
2018-12-21T06:42:11.069Z,1.10
2018-12-21T06:44:40.476Z,2.00
2018-12-21T06:47:09.632Z,2.33
2018-12-21T06:49:38.570Z,2.90
2018-12-21T06:52:07.449Z,1.13
2018-12-21T06:54:36.306Z,2.40
2018-12-21T06:57:05.593Z,1.83
2018-12-21T06:59:34.545Z,3.97
2018-12-21T07:02:03.478Z,2.03
2018-12-21T07:04:32.335Z,2.97
2018-12-21T07:07:01.144Z,1.93
2018-12-21T07:09:30.008Z,0.93
2018-12-21T07:11:59.589Z,1.50
2018-12-21T07:14:28.609Z,1.53
2018-12-21T07:16:57.498Z,1.47
2018-12-21T07:19:26.800Z,1.67
2018-12-21T07:21:55.695Z,3.50
2018-12-21T07:24:24.700Z,1.73
2018-12-21T07:26:53.578Z,0.90
2018-12-21T07:29:22.548Z,1.20
2018-12-21T07:31:51.506Z,1.43
2018-12-21T07:34:21.472Z,1.23
2018-12-21T07:36:50.380Z,2.37
2018-12-21T07:39:19.243Z,2.70
2018-12-21T07:41:48.237Z,2.20
2018-12-21T07:44:17.686Z,2.27
2018-12-21T07:46:46.653Z,1.57
2018-12-21T07:49:16.600Z,2.53
2018-12-21T07:51:45.535Z,2.43
2018-12-21T07:54:14.503Z,2.03
2018-12-21T07:56:43.313Z,1.10
2018-12-21T07:59:12.193Z,1.80
2018-12-21T08:01:41.612Z,1.83
2018-12-21T08:04:10.479Z,2.43
2018-12-21T08:06:39.357Z,2.13
2018-12-21T08:09:08.496Z,2.23
2018-12-21T08:11:38.053Z,2.07
2018-12-21T08:14:07.027Z,1.30
2018-12-21T08:16:36.064Z,1.00
2018-12-21T08:19:04.876Z,2.20
2018-12-21T08:21:34.170Z,1.00
2018-12-21T08:24:03.057Z,1.97
2018-12-21T08:26:31.945Z,1.93
2018-12-21T08:29:00.811Z,1.37
2018-12-21T08:31:29.686Z,2.60
2018-12-21T08:33:58.596Z,4.17
2018-12-21T08:36:27.447Z,2.77
2018-12-21T08:38:56.330Z,4.27
2018-12-21T08:41:25.188Z,4.03
2018-12-21T08:43:54.180Z,4.03
2018-12-21T08:46:23.064Z,3.40
2018-12-21T08:48:52.914Z,3.40
2018-12-21T08:51:21.880Z,2.33
2018-12-21T08:53:52.662Z,1.90
2018-12-21T08:56:21.748Z,3.30
2018-12-21T08:58:50.589Z,1.70
2018-12-21T09:01:19.507Z,2.40
2018-12-21T09:03:48.345Z,2.23
2018-12-21T09:06:18.573Z,2.90
2018-12-21T09:08:47.753Z,1.87
2018-12-21T09:11:16.581Z,3.40
2018-12-21T09:13:45.489Z,2.60
2018-12-21T09:16:17.739Z,2.03
2018-12-21T09:18:46.625Z,1.90
2018-12-21T09:21:15.466Z,5.57
2018-12-21T09:23:44.288Z,1.50
2018-12-21T09:26:13.189Z,3.70
2018-12-21T09:28:42.257Z,3.43
2018-12-21T09:31:11.891Z,5.47
2018-12-21T09:33:40.705Z,4.23
2018-12-21T09:36:09.683Z,1.60
2018-12-21T09:38:40.306Z,1.63
2018-12-21T09:41:09.324Z,2.17
2018-12-21T09:43:38.960Z,1.30
2018-12-21T09:46:09.129Z,1.50
2018-12-21T09:48:38.128Z,1.63
2018-12-21T09:51:07.214Z,1.67
2018-12-21T09:53:36.200Z,3.60
2018-12-21T09:56:05.058Z,4.57
2018-12-21T09:58:35.268Z,1.50
2018-12-21T10:01:04.256Z,2.13
2018-12-21T10:03:33.212Z,2.90
2018-12-21T10:06:02.027Z,2.60
2018-12-21T10:08:30.979Z,2.37
2018-12-21T10:14:03.864Z,3.37
2018-12-21T10:16:33.078Z,2.13
2018-12-21T10:19:02.207Z,1.93
2018-12-21T10:21:31.249Z,2.20
2018-12-21T10:24:01.459Z,2.60
2018-12-21T10:26:30.889Z,3.63
2018-12-21T10:28:59.862Z,3.20
2018-12-21T10:31:28.920Z,3.53
2018-12-21T10:33:58.724Z,2.83
2018-12-21T10:36:31.913Z,3.47
2018-12-21T10:39:03.853Z,5.73
2018-12-21T10:41:34.157Z,2.50
2018-12-21T10:44:03.098Z,2.30
2018-12-21T10:46:31.914Z,2.20
2018-12-21T10:49:01.412Z,2.47
2018-12-21T10:51:30.653Z,1.60
2018-12-21T10:53:59.467Z,2.10
2018-12-21T10:56:28.813Z,2.23
2018-12-21T10:58:57.755Z,1.77
2018-12-21T11:01:27.345Z,0.97
2018-12-21T11:03:56.981Z,1.57
2018-12-21T11:06:26.311Z,0.43
2018-12-21T11:11:57.360Z,0.50
2018-12-21T11:14:26.427Z,0.30
2018-12-21T11:16:56.164Z,1.07
2018-12-21T11:19:25.025Z,0.50
2018-12-21T11:21:53.976Z,0.30
2018-12-21T11:24:23.017Z,0.30
2018-12-21T11:26:51.880Z,0.40
2018-12-21T11:29:20.895Z,0.57
2018-12-21T11:31:49.887Z,0.50
2018-12-21T11:34:18.758Z,0.30
2018-12-21T11:36:47.762Z,0.77
2018-12-21T11:39:16.669Z,1.30
2018-12-21T11:41:46.544Z,0.30
2018-12-21T11:44:15.407Z,0.30
2018-12-21T11:46:44.329Z,0.60
2018-12-21T11:49:13.245Z,1.30
2018-12-21T11:51:42.065Z,0.40
2018-12-21T11:54:11.005Z,0.40
2018-12-21T11:56:39.900Z,0.50
2018-12-21T11:59:08.974Z,0.70
2018-12-21T12:01:37.951Z,0.50
2018-12-21T12:04:07.054Z,0.40
2018-12-21T12:06:35.882Z,0.30
2018-12-21T12:09:07.404Z,0.40
2018-12-21T12:11:37.500Z,0.50
2018-12-21T12:14:06.554Z,1.43
2018-12-21T12:16:36.536Z,1.10
2018-12-21T12:19:05.519Z,0.50
2018-12-21T12:21:34.513Z,0.60
2018-12-21T12:24:03.488Z,0.30
2018-12-21T12:26:32.363Z,0.50
2018-12-21T12:29:01.660Z,2.77
2018-12-21T12:31:31.472Z,1.80
2018-12-21T12:34:06.017Z,0.30
2018-12-21T12:36:39.217Z,0.50
2018-12-21T12:39:08.465Z,0.70
2018-12-21T12:41:37.568Z,0.50
2018-12-21T12:44:07.302Z,0.77
2018-12-21T12:46:36.508Z,0.83
2018-12-21T12:49:05.535Z,0.30
2018-12-21T12:51:34.714Z,1.00
2018-12-21T12:54:04.653Z,0.50
2018-12-21T12:56:34.154Z,1.60
2018-12-21T12:59:04.710Z,0.70
2018-12-21T13:01:34.145Z,1.07
2018-12-21T13:04:03.688Z,1.33
2018-12-21T13:06:33.228Z,0.53
2018-12-21T13:09:02.204Z,2.80
2018-12-21T13:11:32.637Z,1.23
2018-12-21T13:14:01.522Z,0.63
2018-12-21T13:16:30.411Z,2.13
2018-12-21T13:18:59.251Z,0.73
2018-12-21T13:21:28.233Z,0.87
2018-12-21T13:23:57.180Z,0.63
2018-12-21T13:26:26.063Z,0.77
2018-12-21T13:28:54.973Z,0.60
2018-12-21T13:31:24.497Z,0.87
2018-12-21T13:33:53.477Z,0.63
2018-12-21T13:36:22.353Z,1.17
2018-12-21T13:38:51.348Z,1.40
2018-12-21T13:41:20.226Z,0.73
2018-12-21T13:43:49.101Z,1.30
2018-12-21T13:46:18.137Z,0.50
2018-12-21T13:48:47.129Z,2.97
2018-12-21T13:51:15.981Z,1.77
2018-12-21T13:53:44.917Z,3.03
2018-12-21T13:56:13.828Z,3.73
2018-12-21T13:58:42.697Z,0.70
2018-12-21T14:01:12.312Z,1.27
2018-12-21T14:03:41.273Z,0.80
2018-12-21T14:06:10.311Z,2.30
2018-12-21T14:08:39.148Z,2.57
2018-12-21T14:11:08.658Z,1.20
2018-12-21T14:13:37.642Z,1.40
2018-12-21T14:16:06.687Z,0.60
2018-12-21T14:18:35.536Z,1.47
2018-12-21T14:21:05.228Z,3.40
2018-12-21T14:23:34.761Z,2.17
2018-12-21T14:26:03.801Z,0.70
2018-12-21T14:28:32.781Z,1.03
2018-12-21T14:31:02.797Z,1.20
2018-12-21T14:33:31.758Z,1.07
2018-12-21T14:36:00.581Z,1.97
2018-12-21T14:38:29.400Z,1.70
2018-12-21T14:40:58.358Z,1.90
2018-12-21T14:43:27.261Z,1.37
2018-12-21T14:45:56.353Z,1.57
2018-12-21T14:48:25.454Z,2.87
2018-12-21T14:50:54.919Z,1.53
2018-12-21T14:53:23.900Z,4.53
2018-12-21T14:55:52.764Z,3.10
2018-12-21T14:58:22.185Z,2.83
2018-12-21T15:00:50.996Z,3.80
2018-12-21T15:03:19.969Z,3.10
2018-12-21T15:05:48.781Z,4.77
2018-12-21T15:08:17.736Z,3.10
2018-12-21T15:10:46.557Z,6.50
2018-12-21T15:13:15.407Z,7.70
2018-12-21T15:15:44.310Z,6.50
2018-12-21T15:18:13.281Z,7.37
2018-12-21T15:20:42.180Z,7.13
2018-12-21T15:23:10.982Z,5.53
2018-12-21T15:25:46.013Z,8.43
2018-12-21T15:28:10.797Z,7.13
2018-12-21T15:30:39.675Z,11.60
2018-12-21T15:33:08.483Z,7.50
2018-12-21T15:35:37.372Z,8.10
2018-12-21T15:38:06.203Z,9.13
2018-12-21T15:40:35.150Z,12.07
2018-12-21T15:43:04.197Z,10.30
2018-12-21T15:45:33.041Z,12.87
2018-12-21T15:48:02.029Z,12.77
2018-12-21T15:50:30.913Z,9.43
2018-12-21T15:52:59.810Z,14.53
2018-12-21T15:55:29.030Z,19.53
2018-12-21T15:57:57.888Z,20.03
2018-12-21T16:00:27.006Z,11.97
2018-12-21T16:02:56.895Z,23.40
2018-12-21T16:05:25.929Z,21.47
2018-12-21T16:07:54.805Z,18.90
2018-12-21T16:10:23.672Z,17.63
2018-12-21T16:12:52.574Z,22.30
2018-12-21T16:15:21.465Z,19.10
2018-12-21T16:17:50.344Z,17.90
2018-12-21T16:20:19.227Z,19.53
2018-12-21T16:22:48.129Z,20.83
2018-12-21T16:25:17.087Z,25.00
2018-12-21T16:27:46.021Z,18.40
2018-12-21T16:30:15.009Z,19.87
2018-12-21T16:32:43.921Z,22.83
2018-12-21T16:35:12.858Z,15.27
2018-12-21T16:37:41.681Z,20.53
2018-12-21T16:40:11.594Z,12.23
2018-12-21T16:42:40.481Z,17.73
2018-12-21T16:45:11.105Z,13.10
2018-12-21T16:47:39.921Z,22.23
2018-12-21T16:50:12.753Z,17.10
2018-12-21T16:52:41.613Z,25.27
2018-12-21T16:55:11.662Z,23.23
2018-12-21T16:57:40.535Z,20.17
2018-12-21T17:00:13.668Z,18.10
2018-12-21T17:02:42.596Z,23.27
2018-12-21T17:05:11.584Z,17.37
2018-12-21T17:07:40.496Z,13.57
2018-12-21T17:10:18.901Z,16.57
2018-12-21T17:12:47.948Z,19.20
2018-12-21T17:15:16.945Z,25.53
2018-12-21T17:17:45.877Z,16.77
2018-12-21T17:20:14.757Z,19.57
2018-12-21T17:22:43.596Z,25.23
2018-12-21T17:25:14.039Z,23.17
2018-12-21T17:27:43.529Z,23.90
2018-12-21T17:30:13.396Z,21.90
2018-12-21T17:32:42.453Z,22.27
2018-12-21T17:35:11.328Z,32.63
2018-12-21T17:37:40.615Z,21.13
2018-12-21T17:40:11.451Z,28.90
2018-12-21T17:42:40.206Z,23.07
2018-12-21T17:45:11.030Z,23.30
2018-12-21T17:47:39.859Z,22.23
2018-12-21T17:50:10.196Z,31.37
2018-12-21T17:52:39.076Z,18.17
2018-12-21T17:55:09.029Z,23.37
2018-12-21T17:57:38.931Z,24.93
2018-12-21T18:00:16.526Z,25.47
2018-12-21T18:02:47.755Z,21.17
2018-12-21T18:05:16.610Z,23.47
2018-12-21T18:07:45.433Z,21.93
2018-12-21T18:10:14.987Z,27.73
2018-12-21T18:12:43.953Z,19.40
2018-12-21T18:15:12.884Z,25.27
2018-12-21T18:17:41.710Z,26.30
2018-12-21T18:20:12.268Z,25.50
2018-12-21T18:22:41.760Z,22.63
2018-12-21T18:25:15.492Z,19.60
2018-12-21T18:27:46.830Z,30.83
2018-12-21T18:30:24.796Z,24.83
2018-12-21T18:32:53.726Z,23.93
2018-12-21T18:35:22.696Z,30.07
2018-12-21T18:37:55.969Z,17.20
2018-12-21T18:40:24.830Z,33.37
2018-12-21T18:42:53.670Z,30.10
2018-12-21T18:45:22.553Z,28.67
2018-12-21T18:47:51.456Z,21.67
2018-12-21T18:50:21.101Z,21.20
2018-12-21T18:52:49.944Z,22.30
2018-12-21T18:55:18.787Z,24.77
2018-12-21T18:57:47.737Z,25.47
2018-12-21T19:00:17.376Z,18.77
2018-12-21T19:02:46.276Z,34.00
2018-12-21T19:05:15.097Z,24.37
2018-12-21T19:07:43.977Z,24.27
2018-12-21T19:10:13.857Z,23.13
2018-12-21T19:12:42.753Z,19.90
2018-12-21T19:15:12.097Z,23.93
2018-12-21T19:17:41.124Z,24.20
2018-12-21T19:20:11.627Z,29.20
2018-12-21T19:22:40.743Z,27.43
2018-12-21T19:25:10.931Z,26.90
2018-12-21T19:27:39.850Z,29.57
2018-12-21T19:30:11.339Z,31.10
2018-12-21T19:32:42.353Z,25.00
2018-12-21T19:35:12.461Z,26.40
2018-12-21T19:37:41.531Z,25.00
2018-12-21T19:40:12.644Z,27.40
2018-12-21T19:42:42.713Z,23.13
2018-12-21T19:45:13.427Z,28.17
2018-12-21T19:47:42.401Z,28.97
2018-12-21T19:50:11.608Z,26.23
2018-12-21T19:52:40.688Z,18.70
2018-12-21T19:55:18.426Z,19.17
2018-12-21T19:57:47.245Z,31.53
2018-12-21T20:00:16.711Z,26.47
2018-12-21T20:02:46.996Z,30.00
2018-12-21T20:05:16.010Z,26.30
2018-12-21T20:07:44.821Z,28.10
2018-12-21T20:10:13.722Z,21.17
2018-12-21T20:12:42.608Z,25.13
2018-12-21T20:15:11.614Z,23.57
2018-12-21T20:17:40.439Z,32.47
2018-12-21T20:20:10.500Z,25.90
2018-12-21T20:22:39.328Z,34.57
2018-12-21T20:25:10.512Z,35.07
2018-12-21T20:27:40.344Z,28.57
2018-12-21T20:30:12.353Z,26.63
2018-12-21T20:32:41.261Z,28.50
2018-12-21T20:35:10.260Z,30.27
2018-12-21T20:37:39.268Z,26.03
2018-12-21T20:40:10.021Z,27.90
2018-12-21T20:42:39.040Z,29.70
2018-12-21T20:45:09.325Z,35.07
2018-12-21T20:47:38.254Z,25.13
2018-12-21T20:50:10.525Z,31.07
2018-12-21T20:52:39.404Z,24.73
2018-12-21T20:55:08.894Z,26.63
2018-12-21T20:57:38.309Z,23.83
2018-12-21T21:00:11.265Z,26.83
2018-12-21T21:02:40.149Z,22.60
2018-12-21T21:05:09.029Z,22.43
2018-12-21T21:07:37.871Z,32.17
2018-12-21T21:10:09.929Z,24.07
2018-12-21T21:12:38.813Z,25.70
2018-12-21T21:15:09.337Z,26.37
2018-12-21T21:17:38.320Z,22.60
2018-12-21T21:20:10.419Z,30.13
2018-12-21T21:22:39.449Z,27.27
2018-12-21T21:25:09.205Z,27.33
2018-12-21T21:27:38.128Z,28.70
2018-12-21T21:30:12.086Z,34.47
2018-12-21T21:32:41.195Z,24.53
2018-12-21T21:35:10.390Z,28.07
2018-12-21T21:37:39.345Z,25.07
2018-12-21T21:40:12.097Z,31.23
2018-12-21T21:42:40.917Z,27.57
2018-12-21T21:45:09.872Z,30.73
2018-12-21T21:47:39.680Z,26.47
2018-12-21T21:50:09.393Z,28.23
2018-12-21T21:52:38.332Z,29.77
2018-12-21T21:55:07.810Z,21.03
2018-12-21T21:57:39.606Z,29.57
2018-12-21T22:00:11.746Z,26.87
2018-12-21T22:02:40.812Z,32.33
2018-12-21T22:05:09.789Z,26.77
2018-12-21T22:07:38.676Z,26.07
2018-12-21T22:10:09.733Z,29.13
2018-12-21T22:12:38.673Z,29.67
2018-12-21T22:15:09.425Z,33.70
2018-12-21T22:17:38.337Z,20.97
2018-12-21T22:20:09.765Z,24.23
2018-12-21T22:22:38.676Z,24.57
2018-12-21T22:25:07.711Z,29.17
2018-12-21T22:27:36.688Z,33.07
2018-12-21T22:30:07.880Z,27.07
2018-12-21T22:32:36.977Z,25.30
2018-12-21T22:35:06.104Z,34.50
2018-12-21T22:37:36.068Z,31.43
2018-12-21T22:40:05.592Z,25.83
2018-12-21T22:42:34.426Z,27.13
2018-12-21T22:45:03.602Z,28.77
2018-12-21T22:47:32.593Z,25.20
2018-12-21T22:50:01.506Z,28.87
2018-12-21T22:52:30.460Z,28.30
2018-12-21T22:54:59.372Z,29.07
2018-12-21T22:57:28.225Z,28.47
2018-12-21T22:59:57.144Z,32.07
2018-12-21T23:02:26.091Z,24.83
2018-12-21T23:04:55.080Z,25.20
2018-12-21T23:07:23.904Z,32.07
2018-12-21T23:09:52.905Z,26.70
2018-12-21T23:12:21.805Z,26.87
2018-12-21T23:14:50.636Z,25.33
2018-12-21T23:17:19.572Z,28.30
2018-12-21T23:19:48.492Z,26.47
2018-12-21T23:22:17.369Z,26.30
2018-12-21T23:24:46.252Z,25.33
2018-12-21T23:27:15.141Z,34.40
2018-12-21T23:29:44.159Z,32.03
2018-12-21T23:32:13.214Z,26.03
2018-12-21T23:34:43.024Z,22.60
2018-12-21T23:37:11.928Z,28.10
2018-12-21T23:39:40.816Z,25.90
2018-12-21T23:42:09.809Z,19.97
2018-12-21T23:44:38.704Z,25.97
2018-12-21T23:47:07.645Z,31.33
2018-12-21T23:49:36.617Z,28.70
2018-12-21T23:52:05.585Z,22.53
2018-12-21T23:54:34.481Z,29.23
2018-12-21T23:57:03.597Z,21.07
2018-12-21T23:59:32.560Z,38.10
